createdAt,value
2018-01-25T00:01:28.744Z,2.97
2018-01-25T00:03:55.661Z,3.70
2018-01-25T00:06:21.960Z,3.83
2018-01-25T00:08:49.318Z,4.00
2018-01-25T00:11:15.580Z,1.90
2018-01-25T00:13:42.827Z,3.13
2018-01-25T00:16:10.319Z,3.63
2018-01-25T00:18:36.595Z,3.43
2018-01-25T00:21:03.647Z,2.77
2018-01-25T00:23:29.928Z,3.33
2018-01-25T00:25:57.179Z,3.40
2018-01-25T00:28:24.178Z,3.63
2018-01-25T00:30:51.190Z,4.87
2018-01-25T00:33:17.458Z,2.70
2018-01-25T00:35:44.507Z,4.27
2018-01-25T00:38:10.777Z,3.50
2018-01-25T00:40:37.065Z,3.17
2018-01-25T00:43:03.349Z,3.00
2018-01-25T00:45:29.615Z,3.20
2018-01-25T00:47:55.870Z,7.23
2018-01-25T00:50:22.925Z,6.83
2018-01-25T00:52:49.227Z,7.70
2018-01-25T00:55:15.505Z,4.03
2018-01-25T00:57:41.770Z,9.40
2018-01-25T01:00:08.819Z,5.43
2018-01-25T01:02:35.247Z,3.03
2018-01-25T01:05:01.506Z,6.23
2018-01-25T01:07:28.535Z,4.20
2018-01-25T01:09:54.791Z,3.40
2018-01-25T01:12:21.046Z,6.33
2018-01-25T01:14:48.109Z,3.43
2018-01-25T01:17:15.143Z,6.23
2018-01-25T01:19:41.423Z,3.90
2018-01-25T01:22:07.682Z,4.57
2018-01-25T01:24:33.952Z,2.93
2018-01-25T01:27:00.255Z,5.07
2018-01-25T01:29:26.568Z,3.37
2018-01-25T01:31:52.885Z,4.97
2018-01-25T01:34:19.153Z,3.93
2018-01-25T01:36:45.409Z,7.07
2018-01-25T01:39:11.709Z,6.93
2018-01-25T01:41:37.959Z,3.47
2018-01-25T01:44:04.258Z,7.93
2018-01-25T01:46:30.570Z,4.37
2018-01-25T01:48:56.817Z,4.00
2018-01-25T01:51:23.094Z,4.10
2018-01-25T01:53:49.371Z,7.57
2018-01-25T01:56:15.645Z,5.90
2018-01-25T01:58:41.912Z,3.23
2018-01-25T02:01:08.179Z,3.70
2018-01-25T02:03:34.491Z,4.73
2018-01-25T02:06:00.742Z,3.73
2018-01-25T02:08:27.043Z,4.23
2018-01-25T02:10:54.046Z,8.17
2018-01-25T02:13:20.327Z,6.37
2018-01-25T02:15:46.650Z,3.80
2018-01-25T02:18:12.922Z,5.97
2018-01-25T02:20:39.970Z,4.20
2018-01-25T02:23:06.256Z,4.23
2018-01-25T02:25:32.538Z,5.23
2018-01-25T02:27:58.822Z,5.07
2018-01-25T02:30:25.155Z,5.97
2018-01-25T02:32:51.421Z,6.00
2018-01-25T02:35:18.466Z,4.17
2018-01-25T02:37:44.729Z,4.50
2018-01-25T02:40:11.014Z,6.90
2018-01-25T02:42:37.289Z,3.87
2018-01-25T02:45:03.613Z,3.77
2018-01-25T02:47:29.883Z,3.00
2018-01-25T02:49:56.165Z,3.97
2018-01-25T02:52:23.207Z,5.20
2018-01-25T02:54:49.483Z,5.80
2018-01-25T02:57:15.782Z,4.47
2018-01-25T02:59:42.075Z,4.70
2018-01-25T03:02:08.378Z,5.73
2018-01-25T03:04:34.656Z,5.23
2018-01-25T03:07:00.897Z,3.90
2018-01-25T03:09:27.184Z,7.07
2018-01-25T03:11:53.455Z,10.87
2018-01-25T03:14:19.733Z,5.63
2018-01-25T03:16:46.832Z,7.87
2018-01-25T03:19:13.086Z,3.07
2018-01-25T03:21:39.398Z,4.03
2018-01-25T03:24:05.670Z,5.53
2018-01-25T03:26:31.961Z,4.37
2018-01-25T03:28:58.266Z,5.60
2018-01-25T03:31:24.888Z,3.33
2018-01-25T03:33:51.189Z,4.00
2018-01-25T03:36:17.465Z,4.27
2018-01-25T03:38:43.750Z,4.60
2018-01-25T03:41:10.051Z,6.00
2018-01-25T03:43:36.302Z,4.47
2018-01-25T03:46:02.620Z,4.67
2018-01-25T03:48:28.935Z,3.87
2018-01-25T03:50:55.202Z,5.03
2018-01-25T03:53:21.502Z,5.47
2018-01-25T03:55:48.514Z,2.80
2018-01-25T03:58:14.807Z,3.70
2018-01-25T04:00:41.130Z,3.27
2018-01-25T04:03:07.406Z,3.73
2018-01-25T04:05:33.703Z,3.73
2018-01-25T04:07:59.967Z,4.30
2018-01-25T04:10:26.243Z,3.53
2018-01-25T04:12:52.552Z,3.83
2018-01-25T04:15:18.872Z,4.07
2018-01-25T04:17:45.146Z,3.60
2018-01-25T04:20:11.413Z,4.53
2018-01-25T04:22:50.266Z,3.73
2018-01-25T04:25:32.133Z,5.67
2018-01-25T04:27:58.395Z,3.70
2018-01-25T04:30:25.651Z,3.17
2018-01-25T04:32:51.901Z,10.97
2018-01-25T04:35:18.203Z,4.57
2018-01-25T04:37:44.493Z,3.87
2018-01-25T04:40:10.769Z,3.13
2018-01-25T04:42:37.838Z,2.90
2018-01-25T04:45:04.094Z,7.20
2018-01-25T04:47:30.389Z,3.77
2018-01-25T04:49:56.705Z,2.07
2018-01-25T04:52:24.335Z,3.90
2018-01-25T04:54:50.619Z,2.83
2018-01-25T04:57:16.955Z,2.87
2018-01-25T04:59:43.206Z,4.33
2018-01-25T05:02:09.494Z,2.40
2018-01-25T05:04:35.792Z,2.77
2018-01-25T05:07:02.059Z,5.27
2018-01-25T05:09:28.316Z,3.00
2018-01-25T05:11:54.601Z,4.00
2018-01-25T05:14:20.875Z,3.87
2018-01-25T05:16:58.895Z,6.33
2018-01-25T05:19:25.214Z,2.47
2018-01-25T05:21:51.512Z,3.77
2018-01-25T05:24:19.446Z,3.33
2018-01-25T05:26:45.714Z,5.70
2018-01-25T05:29:12.011Z,2.50
2018-01-25T05:31:38.275Z,2.87
2018-01-25T05:34:04.531Z,3.47
2018-01-25T05:36:30.874Z,2.80
2018-01-25T05:38:57.129Z,7.33
2018-01-25T05:41:23.407Z,3.87
2018-01-25T05:43:49.695Z,2.50
2018-01-25T05:46:15.946Z,4.03
2018-01-25T05:48:42.702Z,2.97
2018-01-25T05:51:08.966Z,3.43
2018-01-25T05:53:35.268Z,3.03
2018-01-25T05:56:12.871Z,4.17
2018-01-25T05:58:39.981Z,3.17
2018-01-25T06:01:06.238Z,2.73
2018-01-25T06:03:32.500Z,4.17
2018-01-25T06:05:58.846Z,4.97
2018-01-25T06:08:25.869Z,4.03
2018-01-25T06:10:52.157Z,3.50
2018-01-25T06:13:18.417Z,3.20
2018-01-25T06:15:45.425Z,3.80
2018-01-25T06:18:11.744Z,3.30
2018-01-25T06:20:38.703Z,8.30
2018-01-25T06:23:05.755Z,3.70
2018-01-25T06:25:32.018Z,3.87
2018-01-25T06:27:58.346Z,3.40
2018-01-25T06:30:24.646Z,3.10
2018-01-25T06:32:50.913Z,3.63
2018-01-25T06:35:17.211Z,3.17
2018-01-25T06:37:44.243Z,5.07
2018-01-25T06:40:11.434Z,3.10
2018-01-25T06:42:37.751Z,4.47
2018-01-25T06:45:04.026Z,3.73
2018-01-25T06:47:30.311Z,5.77
2018-01-25T06:49:56.561Z,3.57
2018-01-25T06:52:22.819Z,3.07
2018-01-25T06:54:49.176Z,3.47
2018-01-25T06:57:16.187Z,4.80
2018-01-25T06:59:42.488Z,4.27
2018-01-25T07:02:08.759Z,5.70
2018-01-25T07:04:35.042Z,3.47
2018-01-25T07:07:01.326Z,2.93
2018-01-25T07:09:27.593Z,6.23
2018-01-25T07:11:53.888Z,3.37
2018-01-25T07:14:20.146Z,4.13
2018-01-25T07:16:46.399Z,3.47
2018-01-25T07:19:12.718Z,5.63
2018-01-25T07:21:38.987Z,2.90
2018-01-25T07:24:05.270Z,4.00
2018-01-25T07:26:31.535Z,6.50
2018-01-25T07:28:57.798Z,3.23
2018-01-25T07:31:24.818Z,6.57
2018-01-25T07:33:51.102Z,5.47
2018-01-25T07:36:17.410Z,3.27
2018-01-25T07:38:43.662Z,3.17
2018-01-25T07:41:09.962Z,5.40
2018-01-25T07:43:36.262Z,2.67
2018-01-25T07:46:02.545Z,3.50
2018-01-25T07:48:28.867Z,3.07
2018-01-25T07:50:55.146Z,4.00
2018-01-25T07:53:22.149Z,2.90
2018-01-25T07:55:48.452Z,3.90
2018-01-25T07:58:20.911Z,6.10
2018-01-25T08:00:47.236Z,3.23
2018-01-25T08:03:13.509Z,2.67
2018-01-25T08:05:39.803Z,3.87
2018-01-25T08:08:06.895Z,4.00
2018-01-25T08:10:33.193Z,4.13
2018-01-25T08:13:05.418Z,6.13
2018-01-25T08:15:31.864Z,4.67
2018-01-25T08:17:58.191Z,4.77
2018-01-25T08:20:25.226Z,3.40
2018-01-25T08:22:52.358Z,8.37
2018-01-25T08:25:18.659Z,5.07
2018-01-25T08:27:45.676Z,5.47
2018-01-25T08:30:11.953Z,3.90
2018-01-25T08:32:38.286Z,5.77
2018-01-25T08:35:04.619Z,4.40
2018-01-25T08:37:30.887Z,6.13
2018-01-25T08:39:57.158Z,4.20
2018-01-25T08:42:23.450Z,4.70
2018-01-25T08:44:50.446Z,9.00
2018-01-25T08:47:16.726Z,8.73
2018-01-25T08:49:43.014Z,6.27
2018-01-25T08:52:10.019Z,10.17
2018-01-25T08:54:36.296Z,6.60
2018-01-25T08:57:02.574Z,7.43
2018-01-25T08:59:29.621Z,5.37
2018-01-25T09:01:55.905Z,10.13
2018-01-25T09:04:22.165Z,6.23
2018-01-25T09:06:48.462Z,7.83
2018-01-25T09:09:15.461Z,6.03
2018-01-25T09:11:41.765Z,4.07
2018-01-25T09:14:08.100Z,7.37
2018-01-25T09:16:36.475Z,7.47
2018-01-25T09:19:05.201Z,5.43
2018-01-25T09:21:31.496Z,6.90
2018-01-25T09:23:57.806Z,7.40
2018-01-25T09:26:24.075Z,4.13
2018-01-25T09:28:50.356Z,5.13
2018-01-25T09:31:16.680Z,4.73
2018-01-25T09:33:43.051Z,4.20
2018-01-25T09:36:10.063Z,7.77
2018-01-25T09:38:36.350Z,6.47
2018-01-25T09:41:02.625Z,4.83
2018-01-25T09:43:28.883Z,4.07
2018-01-25T09:45:55.169Z,3.47
2018-01-25T09:48:21.426Z,5.70
2018-01-25T09:50:47.716Z,4.07
2018-01-25T09:53:14.059Z,5.40
2018-01-25T09:55:40.314Z,6.07
2018-01-25T09:58:06.930Z,7.53
2018-01-25T10:00:33.189Z,7.47
2018-01-25T10:02:59.516Z,11.77
2018-01-25T10:05:25.808Z,7.00
2018-01-25T10:07:52.102Z,6.30
2018-01-25T10:10:18.436Z,4.90
2018-01-25T10:12:44.714Z,4.80
2018-01-25T10:15:11.710Z,3.60
2018-01-25T10:17:38.002Z,4.07
2018-01-25T10:20:04.275Z,5.50
2018-01-25T10:22:31.338Z,5.73
2018-01-25T10:24:57.584Z,5.53
2018-01-25T10:27:23.862Z,4.27
2018-01-25T10:29:50.176Z,5.67
2018-01-25T10:32:16.455Z,7.63
2018-01-25T10:34:43.189Z,4.57
2018-01-25T10:37:10.184Z,8.63
2018-01-25T10:39:36.455Z,8.53
2018-01-25T10:42:02.737Z,7.07
2018-01-25T10:44:30.356Z,4.30
2018-01-25T10:46:57.528Z,5.17
2018-01-25T10:49:23.803Z,5.13
2018-01-25T10:51:50.435Z,11.33
2018-01-25T10:54:16.955Z,6.77
2018-01-25T10:56:43.215Z,5.50
2018-01-25T10:59:10.257Z,5.00
2018-01-25T11:01:42.582Z,4.93
2018-01-25T11:04:09.052Z,4.33
2018-01-25T11:06:35.365Z,10.50
2018-01-25T11:09:01.725Z,4.63
2018-01-25T11:11:28.021Z,4.53
2018-01-25T11:13:54.273Z,4.50
2018-01-25T11:16:20.573Z,6.07
2018-01-25T11:18:46.903Z,5.63
2018-01-25T11:21:13.190Z,6.80
2018-01-25T11:23:39.518Z,4.97
2018-01-25T11:26:05.797Z,4.60
2018-01-25T11:28:32.136Z,5.20
2018-01-25T11:30:58.418Z,5.37
2018-01-25T11:33:24.693Z,4.40
2018-01-25T11:35:51.022Z,6.13
2018-01-25T11:38:17.322Z,5.30
2018-01-25T11:40:43.615Z,4.60
2018-01-25T11:43:09.904Z,4.70
2018-01-25T11:45:36.157Z,5.57
2018-01-25T11:48:02.499Z,3.63
2018-01-25T11:50:28.793Z,4.10
2018-01-25T11:52:55.098Z,4.90
2018-01-25T11:55:21.399Z,5.77
2018-01-25T11:57:47.680Z,4.30
2018-01-25T12:00:13.990Z,6.37
2018-01-25T12:02:40.274Z,4.40
2018-01-25T12:05:06.554Z,6.33
2018-01-25T12:07:32.909Z,4.83
2018-01-25T12:09:59.099Z,6.40
2018-01-25T12:12:25.380Z,4.90
2018-01-25T12:14:51.725Z,4.00
2018-01-25T12:17:17.997Z,5.57
2018-01-25T12:19:44.389Z,3.53
2018-01-25T12:22:11.431Z,4.93
2018-01-25T12:24:38.478Z,4.50
2018-01-25T12:27:05.495Z,4.77
2018-01-25T12:29:32.557Z,5.47
2018-01-25T12:31:58.835Z,4.27
2018-01-25T12:34:25.846Z,5.50
2018-01-25T12:36:52.149Z,7.10
2018-01-25T12:39:18.601Z,5.47
2018-01-25T12:41:48.194Z,4.80
2018-01-25T12:44:15.592Z,4.57
2018-01-25T12:46:42.203Z,3.87
2018-01-25T12:49:08.719Z,4.77
2018-01-25T12:51:35.068Z,4.30
2018-01-25T12:54:01.319Z,6.50
2018-01-25T12:56:28.142Z,8.73
2018-01-25T12:58:55.155Z,5.27
2018-01-25T13:01:22.725Z,6.33
2018-01-25T13:03:50.484Z,7.57
2018-01-25T13:06:17.268Z,6.90
2018-01-25T13:08:44.044Z,4.07
2018-01-25T13:11:10.854Z,6.03
2018-01-25T13:13:37.238Z,5.03
2018-01-25T13:16:04.161Z,6.33
2018-01-25T13:18:31.615Z,9.80
2018-01-25T13:20:58.472Z,9.47
2018-01-25T13:23:25.096Z,14.47
2018-01-25T13:25:52.167Z,14.07
2018-01-25T13:28:18.946Z,10.17
2018-01-25T13:30:45.975Z,22.37
2018-01-25T13:33:18.309Z,6.90
2018-01-25T13:35:44.624Z,7.40
2018-01-25T13:38:10.926Z,6.47
2018-01-25T13:40:37.217Z,11.67
2018-01-25T13:43:03.483Z,5.67
2018-01-25T13:45:29.782Z,5.73
2018-01-25T13:47:56.036Z,5.47
2018-01-25T13:50:23.107Z,5.40
2018-01-25T13:52:49.377Z,5.10
2018-01-25T13:55:16.657Z,5.40
2018-01-25T13:57:42.937Z,4.90
2018-01-25T14:00:09.970Z,8.27
2018-01-25T14:02:36.995Z,5.23
2018-01-25T14:05:03.288Z,4.47
2018-01-25T14:07:29.962Z,7.77
2018-01-25T14:09:56.511Z,6.77
2018-01-25T14:12:22.779Z,5.67
2018-01-25T14:14:49.765Z,5.30
2018-01-25T14:17:16.064Z,7.23
2018-01-25T14:19:42.466Z,9.20
2018-01-25T14:22:08.782Z,9.77
2018-01-25T14:24:35.305Z,9.43
2018-01-25T14:27:01.777Z,7.17
2018-01-25T14:29:28.798Z,4.37
2018-01-25T14:31:55.081Z,5.67
2018-01-25T14:34:21.347Z,7.17
2018-01-25T14:36:47.633Z,5.20
2018-01-25T14:39:14.043Z,8.97
2018-01-25T14:41:40.302Z,9.33
2018-01-25T14:44:07.370Z,7.20
2018-01-25T14:46:33.626Z,9.03
2018-01-25T14:48:59.902Z,5.17
2018-01-25T14:51:26.179Z,5.73
2018-01-25T14:53:53.236Z,5.63
2018-01-25T14:56:19.524Z,8.10
2018-01-25T14:58:45.779Z,7.43
2018-01-25T15:01:12.118Z,8.17
2018-01-25T15:03:38.403Z,5.00
2018-01-25T15:06:04.688Z,4.43
2018-01-25T15:08:32.488Z,8.07
2018-01-25T15:10:58.753Z,7.70
2018-01-25T15:13:25.774Z,9.03
2018-01-25T15:15:53.081Z,6.33
2018-01-25T15:18:19.445Z,5.97
2018-01-25T15:20:45.726Z,6.00
2018-01-25T15:23:12.001Z,5.03
2018-01-25T15:25:44.475Z,4.83
2018-01-25T15:28:10.745Z,4.50
2018-01-25T15:30:37.042Z,6.60
2018-01-25T15:33:03.346Z,6.30
2018-01-25T15:35:29.640Z,7.00
2018-01-25T15:37:55.962Z,4.63
2018-01-25T15:40:22.247Z,7.27
2018-01-25T15:42:48.508Z,7.13
2018-01-25T15:45:14.985Z,6.37
2018-01-25T15:47:41.708Z,9.13
2018-01-25T15:50:08.363Z,8.70
2018-01-25T15:52:34.922Z,9.63
2018-01-25T15:55:01.413Z,6.37
2018-01-25T15:57:28.062Z,10.10
2018-01-25T15:59:54.345Z,8.27
2018-01-25T16:02:20.746Z,4.37
2018-01-25T16:04:47.087Z,6.30
2018-01-25T16:07:13.376Z,11.57
2018-01-25T16:09:39.666Z,5.00
2018-01-25T16:12:05.920Z,7.37
2018-01-25T16:14:32.663Z,8.13
2018-01-25T16:17:06.089Z,10.90
2018-01-25T16:19:32.722Z,12.60
2018-01-25T16:21:59.091Z,9.87
2018-01-25T16:24:25.707Z,10.40
2018-01-25T16:26:52.920Z,8.90
2018-01-25T16:29:20.048Z,7.80
2018-01-25T16:31:46.473Z,10.20
2018-01-25T16:34:12.855Z,11.13
2018-01-25T16:36:39.139Z,13.77
2018-01-25T16:39:05.496Z,14.57
2018-01-25T16:41:31.828Z,15.47
2018-01-25T16:43:58.223Z,13.30
2018-01-25T16:46:24.512Z,25.00
2018-01-25T16:48:50.781Z,29.73
2018-01-25T16:51:17.310Z,26.00
2018-01-25T16:53:43.740Z,41.53
2018-01-25T16:56:10.050Z,42.63
2018-01-25T16:58:36.322Z,46.10
2018-01-25T17:01:03.573Z,66.90
2018-01-25T17:03:29.891Z,71.43
2018-01-25T17:05:56.820Z,62.87
2018-01-25T17:08:23.271Z,66.93
2018-01-25T17:10:49.578Z,72.30
2018-01-25T17:13:15.850Z,64.73
2018-01-25T17:15:42.218Z,40.83
2018-01-25T17:18:09.764Z,32.10
2018-01-25T17:20:37.144Z,78.73
2018-01-25T17:23:03.480Z,55.20
2018-01-25T17:25:29.813Z,107.57
2018-01-25T17:27:56.161Z,86.93
2018-01-25T17:30:22.458Z,72.90
2018-01-25T17:32:49.322Z,35.50
2018-01-25T17:35:15.623Z,23.23
2018-01-25T17:37:41.986Z,18.33
2018-01-25T17:40:08.472Z,15.87
2018-01-25T17:42:34.843Z,112.40
2018-01-25T17:45:01.302Z,142.87
2018-01-25T17:47:27.604Z,92.20
2018-01-25T17:49:53.901Z,59.73
2018-01-25T17:52:20.246Z,77.27
2018-01-25T17:54:46.620Z,98.93
2018-01-25T17:57:12.954Z,83.80
2018-01-25T17:59:39.243Z,44.23
2018-01-25T18:02:05.980Z,37.77
2018-01-25T18:04:32.354Z,33.10
2018-01-25T18:06:58.696Z,42.63
2018-01-25T18:09:24.990Z,36.07
2018-01-25T18:11:51.995Z,38.37
2018-01-25T18:14:18.262Z,35.73
2018-01-25T18:16:45.723Z,29.20
2018-01-25T18:19:12.119Z,23.90
2018-01-25T18:21:38.427Z,25.00
2018-01-25T18:24:05.436Z,25.20
2018-01-25T18:26:32.153Z,30.33
2018-01-25T18:28:58.486Z,24.93
2018-01-25T18:31:25.525Z,29.23
2018-01-25T18:33:52.584Z,34.30
2018-01-25T18:36:18.864Z,27.70
2018-01-25T18:38:45.160Z,19.53
2018-01-25T18:41:11.442Z,23.40
2018-01-25T18:43:37.713Z,13.23
2018-01-25T18:46:04.744Z,15.70
2018-01-25T18:48:32.466Z,14.10
2018-01-25T18:50:58.719Z,16.10
2018-01-25T18:53:25.747Z,15.70
2018-01-25T18:55:52.741Z,18.57
2018-01-25T18:58:19.047Z,14.00
2018-01-25T19:00:45.370Z,14.53
2018-01-25T19:03:11.664Z,17.47
2018-01-25T19:05:37.963Z,12.90
2018-01-25T19:08:04.375Z,19.80
2018-01-25T19:10:30.841Z,24.27
2018-01-25T19:12:57.281Z,18.73
2018-01-25T19:15:23.559Z,15.23
2018-01-25T19:17:49.825Z,15.63
2018-01-25T19:20:17.292Z,16.73
2018-01-25T19:22:43.573Z,21.33
2018-01-25T19:25:09.870Z,17.47
2018-01-25T19:27:36.139Z,27.10
2018-01-25T19:30:02.522Z,30.87
2018-01-25T19:32:28.839Z,26.73
2018-01-25T19:34:55.234Z,27.27
2018-01-25T19:37:21.983Z,28.37
2018-01-25T19:39:49.069Z,29.60
2018-01-25T19:42:15.345Z,27.27
2018-01-25T19:44:42.367Z,28.63
2018-01-25T19:47:09.573Z,27.60
2018-01-25T19:49:36.113Z,27.63
2018-01-25T19:52:02.446Z,29.93
2018-01-25T19:54:28.757Z,29.53
2018-01-25T19:56:55.027Z,23.00
2018-01-25T19:59:21.326Z,23.57
2018-01-25T20:01:47.613Z,25.07
2018-01-25T20:04:14.637Z,22.03
2018-01-25T20:06:41.736Z,19.90
2018-01-25T20:09:08.023Z,24.07
2018-01-25T20:11:34.445Z,23.03
2018-01-25T20:14:00.793Z,18.50
2018-01-25T20:16:27.073Z,15.83
2018-01-25T20:18:53.394Z,19.10
2018-01-25T20:21:19.673Z,20.07
2018-01-25T20:23:46.719Z,14.83
2018-01-25T20:26:12.982Z,20.47
2018-01-25T20:28:39.263Z,21.47
2018-01-25T20:31:05.600Z,17.03
2018-01-25T20:33:31.899Z,19.07
2018-01-25T20:35:58.199Z,18.70
2018-01-25T20:38:24.482Z,13.73
2018-01-25T20:40:50.778Z,18.63
2018-01-25T20:43:17.101Z,21.00
2018-01-25T20:45:43.383Z,19.57
2018-01-25T20:48:09.698Z,19.47
2018-01-25T20:50:35.979Z,18.60
2018-01-25T20:53:02.983Z,14.30
2018-01-25T20:55:29.363Z,15.03
2018-01-25T20:57:55.683Z,15.90
2018-01-25T21:00:22.004Z,18.93
2018-01-25T21:02:48.319Z,17.13
2018-01-25T21:05:14.934Z,20.67
2018-01-25T21:07:41.231Z,14.73
2018-01-25T21:10:07.622Z,19.83
2018-01-25T21:12:34.658Z,20.10
2018-01-25T21:15:01.693Z,15.80
2018-01-25T21:17:28.682Z,18.87
2018-01-25T21:19:54.963Z,16.47
2018-01-25T21:22:21.232Z,21.33
2018-01-25T21:24:47.509Z,16.70
2018-01-25T21:27:15.648Z,21.37
2018-01-25T21:29:43.240Z,14.13
2018-01-25T21:32:10.471Z,16.47
2018-01-25T21:34:37.697Z,14.27
2018-01-25T21:37:04.790Z,16.13
2018-01-25T21:39:31.078Z,15.47
2018-01-25T21:41:57.328Z,15.70
2018-01-25T21:44:23.603Z,11.03
2018-01-25T21:46:49.848Z,15.33
2018-01-25T21:49:16.901Z,9.53
2018-01-25T21:51:43.190Z,9.53
2018-01-25T21:54:09.626Z,12.20
2018-01-25T21:56:35.929Z,11.10
2018-01-25T21:59:02.987Z,8.73
2018-01-25T22:01:29.353Z,7.93
2018-01-25T22:03:55.627Z,8.20
2018-01-25T22:06:21.908Z,8.40
2018-01-25T22:08:48.934Z,8.47
2018-01-25T22:11:15.935Z,6.27
2018-01-25T22:13:42.239Z,6.37
2018-01-25T22:16:08.826Z,6.67
2018-01-25T22:18:35.081Z,8.17
2018-01-25T22:21:01.372Z,7.97
2018-01-25T22:23:27.764Z,6.77
2018-01-25T22:25:54.171Z,6.60
2018-01-25T22:28:20.612Z,6.73
2018-01-25T22:30:46.945Z,7.13
2018-01-25T22:33:13.324Z,5.37
2018-01-25T22:35:39.593Z,6.13
2018-01-25T22:38:05.951Z,5.20
2018-01-25T22:40:32.221Z,8.73
2018-01-25T22:42:58.541Z,6.33
2018-01-25T22:45:24.831Z,5.87
2018-01-25T22:47:51.226Z,5.77
2018-01-25T22:50:18.227Z,5.33
2018-01-25T22:52:44.507Z,6.07
2018-01-25T22:55:10.799Z,5.13
2018-01-25T22:57:37.072Z,5.00
2018-01-25T23:00:03.486Z,6.83
2018-01-25T23:02:29.969Z,6.80
2018-01-25T23:04:56.353Z,8.13
2018-01-25T23:07:23.614Z,17.33
2018-01-25T23:09:50.211Z,13.27
2018-01-25T23:12:16.629Z,15.33
2018-01-25T23:14:43.822Z,14.10
2018-01-25T23:17:10.332Z,10.97
2018-01-25T23:19:36.832Z,14.50
2018-01-25T23:22:03.191Z,13.67
2018-01-25T23:24:29.655Z,16.27
2018-01-25T23:26:55.972Z,14.93
2018-01-25T23:29:22.262Z,10.77
2018-01-25T23:31:48.808Z,13.23
2018-01-25T23:34:15.158Z,11.80
2018-01-25T23:36:41.565Z,10.00
2018-01-25T23:39:07.904Z,13.17
2018-01-25T23:41:34.263Z,13.77
2018-01-25T23:44:01.351Z,9.70
2018-01-25T23:46:27.694Z,11.27
2018-01-25T23:48:54.166Z,9.93
2018-01-25T23:51:20.465Z,13.37
2018-01-25T23:53:46.731Z,12.20
2018-01-25T23:56:20.069Z,11.03
2018-01-25T23:58:46.393Z,12.17
